Time;durP1;ratioP1;P1;durP2;ratioP2;P2;SDS_P1;SDS_P2;PMS_P1;PMS_P2;Temp;Humidity;BMP_temperature;BMP_pressure;BME280_temperature;BME280_humidity;BME280_pressure;Samples;Min_cycle;Max_cycle;Signal;HPM_P1;HPM_P2
2023/01/25 00:02:14;;;;;;;52.88;30.65;;;;;;;4.07;80.85;102974.53;5071275;28;20052;-67
2023/01/25 00:04:41;;;;;;;53.63;32.22;;;;;;;4.01;80.25;102972.69;5053885;28;20048;-68
2023/01/25 00:07:09;;;;;;;52.28;30.17;;;;;;;4.02;80.07;102966.16;5071624;28;20381;-67
2023/01/25 00:09:37;;;;;;;53.55;30.27;;;;;;;3.88;80.64;102970.84;5065400;28;20064;-67
2023/01/25 00:12:05;;;;;;;50.85;31.92;;;;;;;4.02;80.00;102967.00;5070140;28;20056;-69
2023/01/25 00:14:32;;;;;;;53.45;31.42;;;;;;;4.16;79.69;102970.53;5067198;28;20500;-68
2023/01/25 00:16:59;;;;;;;55.22;32.85;;;;;;;4.15;79.18;102964.22;5084693;28;20048;-66
2023/01/25 00:19:27;;;;;;;52.80;30.45;;;;;;;4.17;79.72;102969.44;5052914;28;20053;-67
2023/01/25 00:21:54;;;;;;;49.78;29.38;;;;;;;4.29;79.60;102957.66;5068181;28;20052;-67
2023/01/25 00:24:22;;;;;;;46.35;28.63;;;;;;;4.05;79.61;102955.66;5069015;28;20503;-67
2023/01/25 00:26:49;;;;;;;50.35;30.15;;;;;;;3.88;80.38;102959.94;5068302;28;20059;-67
2023/01/25 00:29:17;;;;;;;51.38;30.85;;;;;;;3.91;80.55;102959.50;5072835;28;20048;-67
2023/01/25 00:31:56;;;;;;;48.22;29.38;;;;;;;4.00;80.66;102960.94;5071180;28;20048;-68
2023/01/25 00:34:24;;;;;;;50.92;29.95;;;;;;;4.22;79.69;102961.50;5063775;28;20044;-67
2023/01/25 00:36:55;;;;;;;51.50;30.27;;;;;;;4.17;79.45;102961.28;5072890;28;20396;-67
2023/01/25 00:39:25;;;;;;;48.00;30.35;;;;;;;3.91;80.38;102956.75;5053146;28;20064;-67
2023/01/25 00:41:53;;;;;;;49.03;30.97;;;;;;;4.02;80.28;102958.00;5066547;28;20056;-66
2023/01/25 00:44:20;;;;;;;54.33;30.67;;;;;;;4.13;80.52;102958.13;5041340;28;20048;-67
2023/01/25 00:46:48;;;;;;;53.85;30.20;;;;;;;3.94;80.78;102948.16;5056246;28;20057;-67
2023/01/25 00:49:20;;;;;;;50.15;30.52;;;;;;;4.00;80.55;102955.47;5055289;28;20044;-66
2023/01/25 00:51:48;;;;;;;45.13;27.83;;;;;;;4.04;80.42;102950.44;5068782;28;20048;-67
2023/01/25 00:54:16;;;;;;;50.28;29.40;;;;;;;4.11;79.74;102948.53;5060219;28;20402;-67
2023/01/25 00:56:45;;;;;;;47.30;29.38;;;;;;;4.12;80.48;102948.31;5070851;28;20503;-67
2023/01/25 00:59:13;;;;;;;49.13;28.55;;;;;;;4.13;79.87;102947.22;5040813;28;20053;-67
2023/01/25 01:01:41;;;;;;;49.58;30.58;;;;;;;4.12;79.74;102944.72;5070926;28;20403;-67
2023/01/25 01:04:08;;;;;;;48.58;28.63;;;;;;;3.94;80.94;102948.16;5057089;28;20499;-67
2023/01/25 01:06:37;;;;;;;48.47;30.02;;;;;;;3.91;81.20;102939.56;5069529;28;20052;-68
2023/01/25 01:09:06;;;;;;;50.90;31.45;;;;;;;3.90;81.19;102944.19;5059919;28;20053;-68
2023/01/25 01:11:33;;;;;;;49.35;29.65;;;;;;;4.04;81.08;102940.38;5042223;28;20057;-66
2023/01/25 01:14:00;;;;;;;56.83;29.90;;;;;;;3.94;80.74;102947.34;5075950;28;20427;-67
2023/01/25 01:16:30;;;;;;;;;;;;;;;3.82;81.28;102944.41;5077917;28;20495;-67
2023/01/25 01:18:58;;;;;;;51.70;29.52;;;;;;;3.97;80.87;102946.91;5076622;28;19921;-67
2023/01/25 01:21:25;;;;;;;49.25;29.30;;;;;;;3.69;81.67;102949.06;5059179;28;20051;-66
2023/01/25 01:23:54;;;;;;;50.85;30.10;;;;;;;3.58;82.73;102936.94;5077780;28;20058;-66
2023/01/25 01:26:21;;;;;;;49.00;29.50;;;;;;;3.60;83.04;102936.72;5074855;28;20048;-66
2023/01/25 01:28:49;;;;;;;50.92;30.70;;;;;;;3.40;83.48;102943.06;5075903;28;20067;-67
2023/01/25 01:31:19;;;;;;;54.03;31.10;;;;;;;3.41;84.27;102943.91;5043146;28;20052;-67
2023/01/25 01:34:00;;;;;;;48.72;28.10;;;;;;;3.67;83.39;102945.72;5061174;28;20049;-67
2023/01/25 01:36:29;;;;;;;50.88;28.52;;;;;;;3.73;82.48;102942.16;5033963;28;20068;-67
2023/01/25 01:38:58;;;;;;;49.78;28.90;;;;;;;3.97;81.83;102934.09;5039761;28;20041;-68
2023/01/25 01:41:26;;;;;;;45.67;26.67;;;;;;;4.01;81.48;102943.50;5058977;28;20060;-68
2023/01/25 01:43:54;;;;;;;51.28;29.85;;;;;;;3.97;81.33;102939.56;5056002;28;20508;-67
2023/01/25 01:46:22;;;;;;;48.80;28.65;;;;;;;4.04;81.62;102943.09;5074966;28;20057;-67
2023/01/25 01:49:15;;;;;;;47.35;28.63;;;;;;;4.05;80.99;102943.91;5054622;28;20053;-67
2023/01/25 01:51:52;;;;;;;49.45;28.45;;;;;;;3.95;80.97;102940.81;5075225;28;20052;-67
2023/01/25 01:54:28;;;;;;;53.83;29.77;;;;;;;3.84;81.38;102953.22;5061607;28;20055;-67
2023/01/25 01:56:59;;;;;;;51.17;30.88;;;;;;;3.87;81.87;102944.59;5055511;28;20120;-67
2023/01/25 01:59:32;;;;;;;53.25;31.50;;;;;;;4.07;81.12;102948.13;5041696;28;20053;-67
2023/01/25 02:01:59;;;;;;;54.35;31.70;;;;;;;3.71;81.98;102956.00;5075446;28;20044;-66
2023/01/25 02:04:28;;;;;;;50.33;30.67;;;;;;;3.74;82.25;102955.56;5072364;28;20068;-66
2023/01/25 02:07:07;;;;;;;58.30;33.42;;;;;;;3.54;82.82;102959.41;5050422;28;20049;-66
2023/01/25 02:09:35;;;;;;;55.50;33.20;;;;;;;3.62;83.25;102950.97;5043367;28;20049;-67
2023/01/25 02:12:05;;;;;;;58.47;33.60;;;;;;;3.73;83.28;102959.31;5071741;28;20048;-67
2023/01/25 02:14:33;;;;;;;58.08;33.17;;;;;;;3.71;83.02;102966.06;5066346;28;20049;-66
2023/01/25 02:17:03;;;;;;;59.58;34.22;;;;;;;3.82;83.14;102960.78;5071847;28;20059;-66
2023/01/25 02:19:52;;;;;;;60.17;34.33;;;;;;;4.02;81.18;102961.56;5038112;28;20052;-66
2023/01/25 02:22:30;;;;;;;58.88;34.92;;;;;;;3.83;82.17;102959.75;5055109;28;20052;-66
2023/01/25 02:25:06;;;;;;;59.38;35.15;;;;;;;3.66;82.64;102961.22;5074952;28;20040;-66
2023/01/25 02:27:38;;;;;;;65.95;36.17;;;;;;;3.59;83.77;102960.44;5058408;28;20060;-66
2023/01/25 02:30:07;;;;;;;63.10;36.55;;;;;;;3.56;83.55;102966.28;5063362;28;20056;-67
2023/01/25 02:32:34;;;;;;;59.95;34.28;;;;;;;3.90;83.19;102960.56;5057786;28;20302;-67
2023/01/25 02:35:04;;;;;;;58.88;34.90;;;;;;;3.91;82.79;102956.75;5045186;28;20059;-67
2023/01/25 02:37:32;;;;;;;56.83;34.75;;;;;;;3.82;82.41;102962.69;5061599;28;20056;-67
2023/01/25 02:40:00;;;;;;;60.78;35.42;;;;;;;3.66;83.11;102966.69;5047445;28;20491;-67
2023/01/25 02:42:30;;;;;;;58.75;33.83;;;;;;;3.81;82.57;102964.56;5057960;28;20071;-66
2023/01/25 02:45:00;;;;;;;58.40;33.83;;;;;;;3.77;83.13;102966.03;5065920;28;20049;-67
2023/01/25 02:47:27;;;;;;;60.08;33.70;;;;;;;3.53;83.46;102974.91;5072761;28;20053;-67
2023/01/25 02:49:55;;;;;;;60.63;35.15;;;;;;;3.62;83.64;102964.59;5061453;28;20044;-67
2023/01/25 02:52:22;;;;;;;58.50;33.83;;;;;;;3.67;84.06;102962.06;5073833;28;20048;-67
2023/01/25 02:54:50;;;;;;;53.70;32.58;;;;;;;3.87;83.15;102960.16;5054338;28;20041;-67
2023/01/25 02:57:17;;;;;;;55.35;31.70;;;;;;;3.54;83.67;102965.66;5068896;28;20055;-68
2023/01/25 02:59:44;;;;;;;55.20;33.00;;;;;;;3.47;84.53;102968.41;5074051;28;20044;-67
2023/01/25 03:02:13;;;;;;;55.65;32.58;;;;;;;3.60;84.73;102961.25;5073676;28;20052;-67
2023/01/25 03:04:41;;;;;;;55.08;32.35;;;;;;;3.77;83.89;102954.28;5073745;28;20059;-67
2023/01/25 03:07:09;;;;;;;56.80;33.03;;;;;;;3.81;83.48;102950.94;5075174;28;20063;-67
2023/01/25 03:09:37;;;;;;;53.15;31.20;;;;;;;3.81;83.06;102942.75;5066297;28;20417;-67
2023/01/25 03:12:04;;;;;;;50.45;30.42;;;;;;;3.79;83.82;102941.28;5069370;28;20059;-67
2023/01/25 03:14:33;;;;;;;50.70;29.83;;;;;;;3.87;83.68;102944.59;5057126;28;20057;-67
2023/01/25 03:17:00;;;;;;;52.67;30.38;;;;;;;3.59;84.41;102949.53;5068726;28;20044;-67
2023/01/25 03:19:28;;;;;;;53.70;29.35;;;;;;;3.38;84.51;102952.50;5054152;28;20053;-67
2023/01/25 03:21:57;;;;;;;50.58;29.13;;;;;;;3.36;86.02;102957.31;5068458;28;20049;-67
2023/01/25 03:24:26;;;;;;;56.15;30.23;;;;;;;3.20;86.80;102960.47;5073415;28;20052;-67
2023/01/25 03:29:46;;;;;;;55.13;29.58;;;;;;;3.44;86.41;102960.66;5073156;28;20052;-67
2023/01/25 03:32:18;;;;;;;61.17;32.42;;;;;;;3.38;86.77;102956.03;5073453;28;20048;-66
2023/01/25 03:34:46;;;;;;;59.65;33.00;;;;;;;3.42;86.84;102957.31;5041020;28;20119;-66
2023/01/25 03:37:14;;;;;;;69.32;36.03;;;;;;;3.32;87.62;102956.91;5067258;28;20518;-66
2023/01/25 03:39:43;;;;;;;60.60;34.00;;;;;;;3.18;88.09;102960.69;5074109;28;20052;-66
2023/01/25 03:42:12;;;;;;;66.80;37.70;;;;;;;3.15;88.90;102946.66;5073224;28;20075;-66
2023/01/25 03:44:39;;;;;;;63.58;35.42;;;;;;;3.15;89.15;102952.09;5054030;28;20052;-67
2023/01/25 03:47:06;;;;;;;62.58;33.97;;;;;;;3.23;89.13;102941.81;5069940;28;20059;-67
2023/01/25 03:49:34;;;;;;;61.30;33.60;;;;;;;3.26;88.95;102943.31;5074170;28;20055;-68
2023/01/25 03:52:03;;;;;;;61.90;34.53;;;;;;;3.22;89.48;102951.06;5067302;28;20431;-67
2023/01/25 03:54:35;;;;;;;64.05;33.60;;;;;;;3.38;89.14;102947.88;5057434;28;20063;-67
2023/01/25 03:57:03;;;;;;;63.67;34.53;;;;;;;3.50;88.44;102942.63;5056355;28;20052;-67
2023/01/25 03:59:37;;;;;;;56.67;31.80;;;;;;;3.39;87.94;102938.66;5070235;28;20049;-67
2023/01/25 04:02:05;;;;;;;59.65;32.25;;;;;;;3.41;87.62;102939.31;5072844;28;20067;-67
2023/01/25 04:04:32;;;;;;;63.00;34.00;;;;;;;3.24;88.42;102942.66;5040658;28;20055;-67
2023/01/25 04:07:00;;;;;;;65.60;35.30;;;;;;;3.13;89.41;102935.97;5051336;28;20063;-67
2023/01/25 04:09:28;;;;;;;68.53;37.28;;;;;;;3.19;89.45;102943.28;5053557;28;20037;-68
2023/01/25 04:11:58;;;;;;;71.47;38.05;;;;;;;3.10;90.01;102939.09;5052928;28;20055;-67
2023/01/25 04:14:26;;;;;;;69.65;36.47;;;;;;;3.00;90.92;102930.50;5059022;28;20071;-66
2023/01/25 04:17:11;;;;;;;68.47;35.97;;;;;;;2.93;91.22;102943.28;5073847;28;20495;-67
2023/01/25 04:19:48;;;;;;;67.82;33.85;;;;;;;2.94;91.68;102934.09;5062960;28;20049;-67
2023/01/25 04:22:18;;;;;;;67.25;35.80;;;;;;;3.11;91.46;102942.66;5053966;28;20055;-67
2023/01/25 04:24:47;;;;;;;71.57;38.17;;;;;;;3.04;91.65;102952.72;5029777;28;20051;-69
2023/01/25 04:27:15;;;;;;;61.97;34.33;;;;;;;2.96;91.79;102939.31;5074153;28;20099;-67
2023/01/25 04:29:54;;;;;;;58.78;32.28;;;;;;;2.76;92.16;102950.19;5077145;28;20046;-68
2023/01/25 04:32:24;;;;;;;71.55;37.13;;;;;;;3.05;92.03;102941.63;5077009;28;20071;-68
2023/01/25 04:34:52;;;;;;;64.03;32.58;;;;;;;3.15;90.55;102943.94;5056615;28;20052;-67
2023/01/25 04:37:22;;;;;;;62.05;33.70;;;;;;;3.17;90.23;102945.38;5044553;28;20527;-67
2023/01/25 04:39:54;;;;;;;67.38;35.88;;;;;;;3.25;90.49;102939.72;5057235;28;20049;-67
2023/01/25 04:42:22;;;;;;;66.35;35.50;;;;;;;2.96;90.89;102940.16;5075446;28;20045;-67
2023/01/25 04:44:53;;;;;;;66.28;34.60;;;;;;;2.96;91.36;102942.03;5077706;28;20045;-68
2023/01/25 04:47:20;;;;;;;66.13;35.38;;;;;;;2.81;92.42;102942.25;5059740;28;20653;-66
2023/01/25 04:49:48;;;;;;;64.47;33.83;;;;;;;2.99;92.47;102934.31;5033031;28;20049;-67
2023/01/25 04:52:18;;;;;;;64.32;32.83;;;;;;;3.12;91.88;102930.75;5058193;28;20055;-67
2023/01/25 04:54:46;;;;;;;60.95;32.63;;;;;;;3.35;91.71;102928.41;5066963;28;20061;-68
2023/01/25 04:57:13;;;;;;;61.97;32.97;;;;;;;3.31;90.37;102927.16;5073630;28;20492;-68
2023/01/25 04:59:47;;;;;;;59.03;30.70;;;;;;;3.13;90.56;102938.69;5076582;28;20052;-67
2023/01/25 05:02:14;;;;;;;54.13;29.65;;;;;;;2.85;90.22;102935.34;5059567;28;20052;-67
2023/01/25 05:04:41;;;;;;;53.10;28.02;;;;;;;2.82;90.63;102935.75;5048983;28;20048;-67
2023/01/25 05:07:09;;;;;;;51.13;27.25;;;;;;;3.02;90.23;102928.44;5058650;28;20060;-67
2023/01/25 05:09:36;;;;;;;41.78;23.10;;;;;;;2.91;89.00;102920.88;5060194;28;20067;-67
2023/01/25 05:12:10;;;;;;;50.42;26.55;;;;;;;3.16;88.87;102926.53;5053049;28;20084;-67
2023/01/25 05:14:50;;;;;;;33.75;18.10;;;;;;;2.94;87.30;102936.81;5059076;28;20045;-67
2023/01/25 05:17:17;;;;;;;43.33;22.80;;;;;;;2.89;88.56;102927.59;5075721;28;20411;-67
2023/01/25 05:19:44;;;;;;;51.65;27.00;;;;;;;3.09;88.83;102931.13;5070708;28;20049;-67
2023/01/25 05:22:19;;;;;;;51.67;27.77;;;;;;;3.09;88.53;102922.97;5067218;28;20052;-68
2023/01/25 05:24:50;;;;;;;52.35;27.30;;;;;;;3.21;89.49;102924.84;5057039;28;20045;-67
2023/01/25 05:27:19;;;;;;;26.80;14.32;;;;;;;3.08;87.92;102922.16;5060064;28;20056;-68
2023/01/25 05:29:56;;;;;;;28.75;15.52;;;;;;;3.17;86.57;102923.59;5057900;28;20036;-68
2023/01/25 05:32:36;;;;;;;37.00;20.35;;;;;;;3.12;86.65;102915.22;5060728;28;20052;-68
2023/01/25 05:35:03;;;;;;;34.67;19.63;;;;;;;3.10;86.87;102916.50;5056567;28;20440;-67
2023/01/25 05:37:31;;;;;;;37.65;19.38;;;;;;;3.19;86.42;102916.06;5059641;28;20059;-67
2023/01/25 05:40:03;;;;;;;38.22;18.83;;;;;;;3.35;85.91;102910.16;5073602;28;20052;-67
2023/01/25 05:42:35;;;;;;;34.55;18.45;;;;;;;2.83;86.31;102912.94;5059613;28;20060;-67
2023/01/25 05:45:06;;;;;;;32.30;16.75;;;;;;;2.51;87.84;102921.06;5055864;28;20057;-67
2023/01/25 05:47:35;;;;;;;30.60;16.58;;;;;;;2.77;88.15;102921.09;5033528;28;20045;-67
2023/01/25 05:50:03;;;;;;;33.78;17.63;;;;;;;3.05;87.51;102919.84;5057634;28;20056;-67
2023/01/25 05:52:41;;;;;;;30.42;16.35;;;;;;;3.20;85.93;102920.47;5044520;28;20515;-67
2023/01/25 05:55:09;;;;;;;28.75;15.35;;;;;;;2.96;85.66;102912.09;5057548;28;20052;-67
2023/01/25 05:57:40;;;;;;;27.38;14.75;;;;;;;2.80;86.11;102913.38;5075438;28;20056;-67
2023/01/25 06:00:10;;;;;;;30.33;17.23;;;;;;;2.74;86.51;102916.06;5064416;28;20053;-66
2023/01/25 06:02:40;;;;;;;28.63;14.75;;;;;;;3.06;85.86;102920.69;5063502;28;20045;-67
2023/01/25 06:05:13;;;;;;;28.20;15.23;;;;;;;2.98;85.38;102912.75;5058106;28;20048;-66
2023/01/25 06:07:40;;;;;;;29.27;15.93;;;;;;;2.92;85.43;102910.84;5058187;28;20059;-67
2023/01/25 06:10:08;;;;;;;31.17;17.17;;;;;;;3.05;85.38;102917.09;5045885;28;20045;-67
2023/01/25 06:12:36;;;;;;;30.63;15.60;;;;;;;3.08;85.07;102911.28;5038531;28;20646;-67
2023/01/25 06:15:04;;;;;;;28.80;15.60;;;;;;;2.81;85.57;102908.72;5062315;28;20049;-67
2023/01/25 06:17:32;;;;;;;25.30;14.55;;;;;;;2.96;85.80;102915.66;5075274;28;20079;-67
2023/01/25 06:20:09;;;;;;;23.88;12.65;;;;;;;2.74;85.01;102921.50;5080986;28;20522;-67
2023/01/25 06:22:48;;;;;;;26.30;14.75;;;;;;;2.93;85.10;102913.34;5076693;28;20051;-68
2023/01/25 06:25:16;;;;;;;29.83;15.85;;;;;;;3.14;83.97;102910.41;5071466;28;20049;-66
2023/01/25 06:27:43;;;;;;;31.55;17.05;;;;;;;2.86;84.60;102908.97;5055773;28;20051;-69
2023/01/25 06:30:11;;;;;;;31.50;16.90;;;;;;;2.83;85.25;102906.66;5056262;28;20561;-67
2023/01/25 06:32:39;;;;;;;32.28;17.15;;;;;;;2.91;85.64;102911.91;5069104;28;20048;-69
2023/01/25 06:35:07;;;;;;;40.20;20.48;;;;;;;2.93;85.81;102912.53;5056492;28;20063;-69
2023/01/25 06:37:35;;;;;;;39.28;20.67;;;;;;;2.76;86.77;102908.53;5073993;28;20537;-68
2023/01/25 06:40:03;;;;;;;40.20;21.67;;;;;;;2.61;87.82;102908.75;5076207;28;20047;-67
2023/01/25 06:42:30;;;;;;;39.47;20.38;;;;;;;2.56;88.16;102905.81;5041095;28;20056;-66
2023/01/25 06:44:58;;;;;;;41.08;21.67;;;;;;;2.78;87.85;102914.59;5040951;28;20385;-68
2023/01/25 06:47:25;;;;;;;42.28;20.45;;;;;;;2.60;88.02;102904.31;5074459;28;20049;-66
2023/01/25 06:49:52;;;;;;;38.03;18.85;;;;;;;2.86;87.46;102906.25;5046771;28;20045;-66
2023/01/25 06:52:19;;;;;;;38.53;20.35;;;;;;;2.75;87.43;102901.41;5071774;28;20059;-68
2023/01/25 06:54:47;;;;;;;39.63;19.35;;;;;;;2.77;87.75;102891.16;5053956;28;20049;-66
2023/01/25 06:57:14;;;;;;;38.85;19.58;;;;;;;2.90;86.89;102896.59;5071004;28;20546;-67
2023/01/25 06:59:42;;;;;;;36.05;18.48;;;;;;;2.94;86.17;102897.88;5076094;28;20052;-68
2023/01/25 07:02:16;;;;;;;30.08;16.88;;;;;;;2.54;86.57;102902.47;5054454;28;20055;-66
2023/01/25 07:04:43;;;;;;;30.73;17.35;;;;;;;2.53;87.05;102895.31;5065254;28;20052;-68
2023/01/25 07:07:10;;;;;;;35.03;17.20;;;;;;;2.24;88.05;102896.53;5075213;28;20052;-67
2023/01/25 07:09:38;;;;;;;35.25;18.25;;;;;;;2.59;88.40;102893.66;5075958;28;20040;-67
2023/01/25 07:12:06;;;;;;;30.48;16.17;;;;;;;2.56;86.54;102888.66;5074018;28;20056;-67
2023/01/25 07:14:33;;;;;;;32.03;16.48;;;;;;;2.69;86.78;102894.09;5075799;28;20045;-68
2023/01/25 07:17:00;;;;;;;29.17;15.65;;;;;;;2.77;85.69;102893.91;5073945;28;20053;-67
2023/01/25 07:19:30;;;;;;;31.05;15.15;;;;;;;2.58;85.42;102900.97;5060819;28;20044;-68
2023/01/25 07:21:57;;;;;;;28.88;15.95;;;;;;;2.69;85.20;102891.34;5035681;28;20416;-68
2023/01/25 07:24:27;;;;;;;27.80;15.30;;;;;;;2.86;85.16;102889.94;5068242;28;20067;-67
2023/01/25 07:26:54;;;;;;;29.08;15.18;;;;;;;2.95;84.10;102900.38;5068545;28;20060;-68
2023/01/25 07:29:22;;;;;;;26.55;15.10;;;;;;;2.76;84.70;102895.75;5072932;28;20048;-67
2023/01/25 07:31:49;;;;;;;26.52;14.95;;;;;;;2.79;84.60;102899.97;5063096;28;20072;-67
2023/01/25 07:34:16;;;;;;;27.85;16.08;;;;;;;2.89;84.42;102901.22;5066741;28;20044;-66
2023/01/25 07:36:45;;;;;;;29.15;16.90;;;;;;;3.04;84.70;102892.81;5067369;28;20056;-68
2023/01/25 07:39:12;;;;;;;27.98;15.70;;;;;;;3.22;83.17;102887.56;5060023;28;20052;-69
2023/01/25 07:41:40;;;;;;;25.35;14.38;;;;;;;3.05;82.52;102891.78;5049196;28;20071;-69
2023/01/25 07:44:12;;;;;;;24.70;14.15;;;;;;;2.97;82.97;102897.44;5057671;28;20056;-68
2023/01/25 07:46:48;;;;;;;24.05;14.43;;;;;;;2.84;83.54;102898.28;5066465;28;20044;-68
2023/01/25 07:49:16;;;;;;;35.17;14.55;;;;;;;2.61;83.82;102902.44;5053779;28;20041;-68
2023/01/25 07:51:43;;;;;;;26.63;14.65;;;;;;;2.28;85.38;102900.50;5044539;28;20044;-69
2023/01/25 07:54:11;;;;;;;27.45;14.38;;;;;;;2.42;86.17;102903.25;5068043;28;20053;-68
2023/01/25 07:56:39;;;;;;;33.20;15.65;;;;;;;2.58;85.13;102898.25;5065916;28;20125;-68
2023/01/25 07:59:08;;;;;;;30.33;15.70;;;;;;;2.58;85.15;102905.59;5053526;28;20056;-67
2023/01/25 08:01:37;;;;;;;34.88;16.05;;;;;;;2.58;85.36;102908.31;5029771;28;20520;-68
2023/01/25 08:04:05;;;;;;;32.42;16.45;;;;;;;2.33;86.21;102905.34;5072290;28;20052;-68
2023/01/25 08:06:37;;;;;;;29.85;15.32;;;;;;;2.55;85.92;102897.84;5070409;28;20056;-69
2023/01/25 08:09:12;;;;;;;27.77;15.63;;;;;;;2.71;85.24;102898.28;5073621;28;20063;-68
2023/01/25 08:11:40;;;;;;;30.50;15.65;;;;;;;2.46;85.20;102896.38;5050838;28;20056;-68
2023/01/25 08:14:08;;;;;;;31.92;17.42;;;;;;;2.63;85.23;102894.94;5059401;28;20633;-69
2023/01/25 08:16:36;;;;;;;40.80;18.33;;;;;;;2.75;85.19;102896.81;5067282;28;20049;-67
2023/01/25 08:19:03;;;;;;;34.33;17.85;;;;;;;2.58;85.35;102900.16;5058660;28;20511;-68
2023/01/25 08:21:33;;;;;;;35.42;18.73;;;;;;;2.77;84.61;102897.44;5066762;28;20059;-69
2023/01/25 08:24:03;;;;;;;33.80;17.55;;;;;;;2.61;85.16;102899.75;5065927;28;20049;-68
2023/01/25 08:26:31;;;;;;;34.03;18.98;;;;;;;2.52;85.36;102890.09;5069673;28;20518;-68
2023/01/25 08:28:58;;;;;;;36.53;18.70;;;;;;;2.60;85.63;102896.16;5057272;28;20408;-68
2023/01/25 08:31:28;;;;;;;39.05;20.63;;;;;;;2.42;85.78;102889.66;5068892;28;20044;-67
2023/01/25 08:33:56;;;;;;;38.75;20.55;;;;;;;2.51;86.32;102891.16;5054527;28;20065;-67
2023/01/25 08:36:24;;;;;;;40.15;19.65;;;;;;;2.60;86.16;102896.16;5062629;28;20522;-69
2023/01/25 08:38:56;;;;;;;39.97;21.05;;;;;;;2.74;85.38;102886.13;5070397;28;20060;-69
2023/01/25 08:41:25;;;;;;;40.17;20.52;;;;;;;2.66;84.63;102887.19;5075554;28;20048;-68
2023/01/25 08:43:53;;;;;;;40.53;20.27;;;;;;;2.70;85.51;102887.59;5063307;28;20068;-68
2023/01/25 08:46:22;;;;;;;39.83;20.38;;;;;;;2.58;85.89;102886.56;5067058;28;20048;-70
2023/01/25 08:48:54;;;;;;;40.27;21.13;;;;;;;2.45;87.29;102889.25;5066029;28;20049;-68
2023/01/25 08:51:22;;;;;;;43.13;22.30;;;;;;;2.45;87.26;102886.53;5058452;28;20041;-68
2023/01/25 08:53:50;;;;;;;47.47;23.60;;;;;;;2.45;88.05;102876.50;5064240;28;20049;-68
2023/01/25 08:56:17;;;;;;;42.75;22.48;;;;;;;2.57;86.97;102885.72;5072919;28;20131;-70
2023/01/25 08:58:46;;;;;;;39.83;20.52;;;;;;;2.39;86.92;102877.31;5068922;28;20037;-69
2023/01/25 09:01:15;;;;;;;43.70;22.88;;;;;;;2.27;87.90;102882.53;5069009;28;20048;-69
2023/01/25 09:03:45;;;;;;;44.10;21.98;;;;;;;2.45;87.63;102870.22;5065707;28;20056;-69
2023/01/25 09:06:13;;;;;;;41.83;21.77;;;;;;;2.66;86.77;102868.16;5062928;28;20061;-69
2023/01/25 09:08:40;;;;;;;42.15;23.35;;;;;;;2.46;86.26;102878.16;5075438;28;20044;-68
2023/01/25 09:11:16;;;;;;;43.13;22.02;;;;;;;2.18;88.56;102875.59;5074386;28;20064;-69
2023/01/25 09:13:43;;;;;;;42.70;22.33;;;;;;;2.27;88.74;102881.69;5061194;28;20056;-68
2023/01/25 09:16:13;;;;;;;42.65;22.40;;;;;;;2.19;88.06;102885.44;5070143;28;20044;-67
2023/01/25 09:18:42;;;;;;;;;;;;;;;1.95;89.94;102875.09;5049858;28;20053;-66
2023/01/25 09:21:15;;;;;;;47.20;22.73;;;;;;;2.09;90.20;102882.25;5069385;28;19932;-70
2023/01/25 09:23:43;;;;;;;43.95;22.42;;;;;;;2.09;89.85;102879.53;5054216;28;20048;-67
2023/01/25 09:26:31;;;;;;;50.20;23.42;;;;;;;2.25;89.94;102873.72;5054688;28;20459;-70
2023/01/25 09:28:58;;;;;;;48.88;24.33;;;;;;;2.39;89.00;102879.22;5064597;28;20053;-68
2023/01/25 09:31:26;;;;;;;46.38;24.35;;;;;;;2.42;88.94;102876.06;5050498;28;20446;-68
2023/01/25 09:34:16;;;;;;;44.95;22.80;;;;;;;2.49;87.66;102871.47;5050509;28;20052;-70
2023/01/25 09:36:43;;;;;;;42.83;22.52;;;;;;;2.13;88.42;102867.22;5071517;28;20056;-67
2023/01/25 09:39:11;;;;;;;48.40;24.23;;;;;;;1.90;89.48;102877.59;5075008;28;20051;-68
2023/01/25 09:42:14;;;;;;;42.28;23.95;;;;;;;1.81;90.82;102867.97;5077999;28;20523;-69
2023/01/25 09:45:14;;;;;;;40.38;22.45;;;;;;;1.66;90.51;102861.00;5053147;28;20085;-68
2023/01/25 09:47:58;;;;;;;39.72;21.33;;;;;;;1.49;91.58;102867.81;5066337;28;20171;-68
2023/01/25 09:50:37;;;;;;;38.13;21.38;;;;;;;1.47;92.43;102872.59;5074704;28;20408;-68
2023/01/25 09:53:24;;;;;;;41.15;22.85;;;;;;;1.97;91.37;102870.31;5076687;28;20049;-68
2023/01/25 09:55:58;;;;;;;35.85;19.73;;;;;;;1.63;90.32;102881.25;5057069;28;20045;-67
2023/01/25 09:58:32;;;;;;;36.70;20.20;;;;;;;1.72;91.46;102868.34;5070746;28;20049;-67
2023/01/25 10:01:40;;;;;;;35.35;20.65;;;;;;;2.06;90.48;102877.25;5064633;28;20057;-68
2023/01/25 10:04:21;;;;;;;38.47;20.73;;;;;;;2.02;89.40;102881.41;5064305;28;20158;-67
2023/01/25 10:06:57;;;;;;;36.88;20.27;;;;;;;1.49;91.40;102873.25;5066698;28;20068;-68
2023/01/25 10:09:48;;;;;;;38.03;19.92;;;;;;;1.58;91.51;102875.59;5074449;28;20036;-68
2023/01/25 10:12:21;;;;;;;35.67;20.45;;;;;;;1.68;91.78;102870.63;5074154;28;20404;-67
2023/01/25 10:14:49;;;;;;;37.25;21.50;;;;;;;1.89;90.52;102877.81;5070468;28;20400;-68
2023/01/25 10:17:26;;;;;;;39.58;20.20;;;;;;;1.60;90.07;102883.53;5041584;28;20048;-68
2023/01/25 10:20:01;;;;;;;45.10;21.83;;;;;;;1.89;91.00;102877.81;5069915;28;20048;-68
2023/01/25 10:22:34;;;;;;;43.28;21.48;;;;;;;2.12;89.89;102881.03;5071216;28;20064;-67
2023/01/25 10:25:26;;;;;;;40.65;22.13;;;;;;;1.95;89.28;102883.25;5075855;28;20507;-68
2023/01/25 10:28:16;;;;;;;42.03;22.08;;;;;;;1.95;89.81;102885.16;5059899;28;20052;-68
2023/01/25 10:31:21;;;;;;;37.40;20.63;;;;;;;1.60;90.51;102884.41;5073278;28;20045;-67
2023/01/25 10:33:49;;;;;;;41.53;21.77;;;;;;;1.47;91.03;102884.31;5066809;28;20052;-67
2023/01/25 10:36:29;;;;;;;41.08;21.73;;;;;;;1.37;91.89;102880.28;5070516;28;20053;-67
2023/01/25 10:38:59;;;;;;;40.20;21.95;;;;;;;1.01;93.76;102872.34;5052598;28;20065;-68
2023/01/25 10:41:37;;;;;;;41.78;22.60;;;;;;;1.03;94.20;102875.66;5075559;28;20055;-68
2023/01/25 10:47:00;;;;;;;42.55;22.98;;;;;;;1.55;93.63;102872.44;5075213;28;20491;-68
2023/01/25 10:50:06;;;;;;;38.78;23.60;;;;;;;1.55;92.24;102867.84;5071373;28;20403;-68
2023/01/25 10:52:36;;;;;;;42.78;22.73;;;;;;;1.19;92.49;102869.13;5054050;28;20055;-67
2023/01/25 10:55:24;;;;;;;49.53;24.85;;;;;;;1.44;93.75;102859.44;5065433;28;20052;-69
2023/01/25 10:57:54;;;;;;;48.67;25.88;;;;;;;1.72;92.15;102861.03;5068376;28;20043;-68
2023/01/25 11:00:33;;;;;;;44.88;23.27;;;;;;;1.66;90.72;102852.84;5063866;28;20056;-69
2023/01/25 11:03:00;;;;;;;39.03;22.40;;;;;;;1.76;90.15;102848.72;5070880;28;20052;-68
2023/01/25 11:05:32;;;;;;;46.25;23.63;;;;;;;1.65;90.79;102854.75;5063066;28;20053;-68
2023/01/25 11:08:22;;;;;;;39.25;21.33;;;;;;;1.76;89.71;102848.72;5075113;28;20055;-66
2023/01/25 11:10:52;;;;;;;41.55;22.85;;;;;;;1.77;89.98;102852.28;5052862;28;20131;-68
2023/01/25 11:13:21;;;;;;;45.45;24.13;;;;;;;1.95;89.16;102847.94;5070780;28;20511;-67
2023/01/25 11:15:55;;;;;;;35.10;20.70;;;;;;;2.26;88.39;102845.53;5054701;28;20044;-67
2023/01/25 11:18:28;;;;;;;36.72;20.55;;;;;;;2.22;88.12;102837.97;5077110;28;20048;-67
2023/01/25 11:21:11;;;;;;;36.30;21.33;;;;;;;2.20;87.32;102834.63;5070041;28;20040;-66
2023/01/25 11:23:38;;;;;;;40.58;22.27;;;;;;;2.53;86.42;102834.66;5072534;28;20044;-67
2023/01/25 11:26:16;;;;;;;41.95;22.33;;;;;;;2.12;86.38;102822.06;5054784;28;20045;-67
2023/01/25 11:28:47;;;;;;;55.05;30.50;;;;;;;2.20;87.04;102826.47;5054314;28;20115;-66
2023/01/25 11:31:21;;;;;;;44.95;24.45;;;;;;;2.22;87.62;102816.22;5064278;28;20053;-67
2023/01/25 11:33:49;;;;;;;48.85;25.45;;;;;;;1.76;88.81;102805.25;5072896;28;20044;-67
2023/01/25 11:36:21;;;;;;;58.42;26.40;;;;;;;1.72;89.62;102814.03;5065730;28;20052;-66
2023/01/25 11:39:26;;;;;;;49.83;25.27;;;;;;;1.39;91.82;102810.34;5051280;28;20052;-67
2023/01/25 11:42:12;;;;;;;56.28;26.20;;;;;;;1.42;91.62;102801.78;5071622;28;20426;-67